createdAt,value
2019-06-10T05:55:15.625Z,63.45
2019-06-10T05:56:15.615Z,63.39
2019-06-10T05:57:15.597Z,62.59
2019-06-10T05:58:15.586Z,61.46
2019-06-10T05:59:15.573Z,61.13
2019-06-10T06:00:15.564Z,61.19
2019-06-10T06:01:15.569Z,59.26
2019-06-10T06:02:15.540Z,59.09
2019-06-10T06:03:15.530Z,59.49
2019-06-10T06:04:15.520Z,59.09
2019-06-10T06:05:15.508Z,59.01
2019-06-10T06:06:15.512Z,60.45
2019-06-10T06:07:15.486Z,61.55
2019-06-10T06:08:15.475Z,61.25
2019-06-10T06:09:15.463Z,62.19
2019-06-10T06:10:15.452Z,62.19
2019-06-10T06:11:15.440Z,61.71
2019-06-10T06:12:15.438Z,61.91
2019-06-10T06:13:15.418Z,62.12
2019-06-10T06:14:15.409Z,61.91
2019-06-10T06:15:15.400Z,62.02
2019-06-10T06:16:15.388Z,62.12
2019-06-10T06:17:16.780Z,62.22
2019-06-10T06:18:15.361Z,62.72
2019-06-10T06:19:15.351Z,63.76
2019-06-10T06:20:15.340Z,63.85
2019-06-10T06:21:25.695Z,64.36
2019-06-10T06:22:16.327Z,63.76
2019-06-10T06:23:15.306Z,63.85
2019-06-10T06:24:15.319Z,63.65
2019-06-10T06:25:15.782Z,63.35
2019-06-10T06:26:16.793Z,62.95
2019-06-10T06:27:15.272Z,62.85
2019-06-10T06:28:16.303Z,63.56
2019-06-10T06:29:15.241Z,64.36
2019-06-10T06:30:18.682Z,63.25
2019-06-10T06:31:15.221Z,63.96
2019-06-10T06:32:15.216Z,64.36
2019-06-10T06:33:15.198Z,63.65
2019-06-10T06:34:15.185Z,63.68
2019-06-10T06:35:15.179Z,64.69
2019-06-10T06:36:15.163Z,64.49
2019-06-10T06:37:15.160Z,64.49
2019-06-10T06:38:15.145Z,64.36
2019-06-10T06:39:15.129Z,64.39
2019-06-10T06:40:15.119Z,64.59
2019-06-10T06:41:15.110Z,63.96
2019-06-10T06:42:15.111Z,64.69
2019-06-10T06:43:15.086Z,63.35
2019-06-10T06:44:15.075Z,62.65
2019-06-10T06:45:15.064Z,62.45
2019-06-10T06:46:15.054Z,61.99
2019-06-10T06:47:15.052Z,61.99
2019-06-10T06:48:15.030Z,62.39
2019-06-10T06:49:15.018Z,62.19
2019-06-10T06:50:15.008Z,63.42
2019-06-10T06:51:14.996Z,62.82
2019-06-10T06:52:14.994Z,63.12
2019-06-10T06:53:25.513Z,63.12
2019-06-10T06:54:15.965Z,63.82
2019-06-10T06:55:14.949Z,62.72
2019-06-10T06:56:14.945Z,63.32
2019-06-10T06:57:14.941Z,62.32
2019-06-10T06:58:14.916Z,62.72
2019-06-10T06:59:14.906Z,63.12
2019-06-10T07:00:38.186Z,62.65
2019-06-10T07:01:15.881Z,62.82
2019-06-10T07:02:14.875Z,62.72
2019-06-10T07:03:14.875Z,62.75
2019-06-10T07:04:14.850Z,63.76
2019-06-10T07:05:14.840Z,63.65
2019-06-10T07:06:14.832Z,64.36
2019-06-10T07:07:14.819Z,64.26
2019-06-10T07:08:14.824Z,63.35
2019-06-10T07:09:14.793Z,63.25
2019-06-10T07:10:14.782Z,63.48
2019-06-10T07:11:14.769Z,63.65
2019-06-10T07:12:14.759Z,62.05
2019-06-10T07:13:14.755Z,62.85
2019-06-10T07:14:14.735Z,63.85
2019-06-10T07:15:14.724Z,63.25
2019-06-10T07:16:14.711Z,63.76
2019-06-10T07:17:14.700Z,63.45
2019-06-10T07:18:14.700Z,63.76
2019-06-10T07:19:14.678Z,64.46
2019-06-10T07:20:14.667Z,64.56
2019-06-10T07:21:14.658Z,64.33
2019-06-10T07:22:16.330Z,63.42
2019-06-10T07:23:14.653Z,63.32
2019-06-10T07:24:14.623Z,62.32
2019-06-10T07:25:14.615Z,62.22
2019-06-10T07:26:14.603Z,62.29
2019-06-10T07:27:14.588Z,62.29
2019-06-10T07:28:14.587Z,62.39
2019-06-10T07:29:14.565Z,61.25
2019-06-10T07:30:15.107Z,61.38
2019-06-10T07:31:23.131Z,59.78
2019-06-10T07:32:15.533Z,60.45
2019-06-10T07:33:14.529Z,61.35
2019-06-10T07:34:14.511Z,60.35
2019-06-10T07:35:14.498Z,61.05
2019-06-10T07:36:14.513Z,61.25
2019-06-10T07:37:14.478Z,60.15
2019-06-10T07:38:14.481Z,61.38
2019-06-10T07:39:14.459Z,60.18
2019-06-10T07:40:14.443Z,60.68
2019-06-10T07:41:14.432Z,60.38
2019-06-10T07:42:14.423Z,61.29
2019-06-10T07:43:14.420Z,61.58
2019-06-10T07:44:14.400Z,61.71
2019-06-10T07:45:14.391Z,61.88
2019-06-10T07:46:14.380Z,59.17
2019-06-10T07:47:14.370Z,60.08
2019-06-10T07:48:14.364Z,59.67
2019-06-10T07:49:14.347Z,59.34
2019-06-10T07:50:14.335Z,57.84
2019-06-10T07:51:14.323Z,57.61
2019-06-10T07:52:19.395Z,58.24
2019-06-10T07:53:15.314Z,57.41
2019-06-10T07:54:14.289Z,57.71
2019-06-10T07:55:14.278Z,57.18
2019-06-10T07:56:14.269Z,57.21
2019-06-10T07:57:14.256Z,57.28
2019-06-10T07:58:14.271Z,56.88
2019-06-10T07:59:14.233Z,56.98
2019-06-10T08:00:14.222Z,57.86
2019-06-10T08:01:14.212Z,56.56
2019-06-10T08:02:14.205Z,55.95
2019-06-10T08:03:14.189Z,55.63
2019-06-10T08:04:14.192Z,55.73
2019-06-10T08:05:14.169Z,55.90
2019-06-10T08:06:14.157Z,55.70
2019-06-10T08:07:14.146Z,55.90
2019-06-10T08:08:14.136Z,55.93
2019-06-10T08:09:14.133Z,56.70
2019-06-10T08:10:14.117Z,57.40
2019-06-10T08:11:14.282Z,57.50
2019-06-10T08:12:14.093Z,57.07
2019-06-10T08:13:14.080Z,57.28
2019-06-10T08:14:14.078Z,57.17
2019-06-10T08:15:14.059Z,55.65
2019-06-10T08:16:14.047Z,55.55
2019-06-10T08:17:14.039Z,55.12
2019-06-10T08:18:14.025Z,55.35
2019-06-10T08:19:30.323Z,55.24
2019-06-10T08:20:15.004Z,55.44
2019-06-10T08:21:13.991Z,55.55
2019-06-10T08:22:29.962Z,55.12
2019-06-10T08:23:14.969Z,55.57
2019-06-10T08:24:13.968Z,54.84
2019-06-10T08:25:13.950Z,54.79
2019-06-10T08:26:13.938Z,54.16
2019-06-10T08:27:13.925Z,52.44
2019-06-10T08:28:13.916Z,51.62
2019-06-10T08:29:13.912Z,51.45
2019-06-10T08:30:22.130Z,52.57
2019-06-10T08:31:14.881Z,53.06
2019-06-10T08:32:13.868Z,52.49
2019-06-10T08:33:13.903Z,53.19
2019-06-10T08:34:13.859Z,53.19
2019-06-10T08:35:13.839Z,53.12
2019-06-10T08:36:13.867Z,52.59
2019-06-10T08:37:13.832Z,53.22
2019-06-10T08:38:13.803Z,53.49
2019-06-10T08:39:15.957Z,53.49
2019-06-10T08:40:13.783Z,53.59
2019-06-10T08:41:13.771Z,52.47
2019-06-10T08:42:13.758Z,52.07
2019-06-10T08:43:13.749Z,52.57
2019-06-10T08:44:13.745Z,52.17
2019-06-10T08:45:13.727Z,52.44
2019-06-10T08:46:13.715Z,52.02
2019-06-10T08:47:13.705Z,51.00
2019-06-10T08:48:13.694Z,50.27
2019-06-10T08:49:13.691Z,50.55
2019-06-10T08:50:13.670Z,49.95
2019-06-10T08:51:13.662Z,49.73
2019-06-10T08:52:13.647Z,48.64
2019-06-10T08:53:17.875Z,49.63
2019-06-10T08:54:13.639Z,49.61
2019-06-10T08:55:13.657Z,49.61
2019-06-10T08:56:13.604Z,49.51
2019-06-10T08:57:13.593Z,49.41
2019-06-10T08:58:13.581Z,50.01
2019-06-10T08:59:13.588Z,49.49
2019-06-10T09:00:15.523Z,49.36
2019-06-10T09:01:13.583Z,49.44
2019-06-10T09:02:13.538Z,48.35
2019-06-10T09:03:13.530Z,48.00
2019-06-10T09:04:13.521Z,48.00
2019-06-10T09:05:13.518Z,47.92
2019-06-10T09:06:13.542Z,47.31
2019-06-10T09:07:13.488Z,47.63
2019-06-10T09:08:13.474Z,47.80
2019-06-10T09:09:13.461Z,48.50
2019-06-10T09:10:13.575Z,48.50
2019-06-10T09:11:13.440Z,48.42
2019-06-10T09:12:28.740Z,47.92
2019-06-10T09:13:14.417Z,47.90
2019-06-10T09:14:13.412Z,46.39
2019-06-10T09:15:13.407Z,46.98
2019-06-10T09:16:19.099Z,47.28
2019-06-10T09:17:14.373Z,46.37
2019-06-10T09:18:14.945Z,46.17
2019-06-10T09:19:13.352Z,46.17
2019-06-10T09:20:13.351Z,45.97
2019-06-10T09:21:13.332Z,47.36
2019-06-10T09:22:13.323Z,46.25
2019-06-10T09:23:21.899Z,45.85
2019-06-10T09:24:14.297Z,46.33
2019-06-10T09:25:13.328Z,46.03
2019-06-10T09:26:13.280Z,45.53
2019-06-10T09:27:13.528Z,45.83
2019-06-10T09:28:13.258Z,45.81
2019-06-10T09:29:13.548Z,45.81
2019-06-10T09:30:13.593Z,45.98
2019-06-10T09:31:14.002Z,45.98
2019-06-10T09:32:13.212Z,45.98
2019-06-10T09:33:13.207Z,44.48
2019-06-10T09:34:13.196Z,43.37
2019-06-10T09:35:13.190Z,43.66
2019-06-10T09:36:13.170Z,44.48
2019-06-10T09:37:13.158Z,44.78
2019-06-10T09:38:14.195Z,44.38
2019-06-10T09:39:13.210Z,45.17
2019-06-10T09:40:13.138Z,44.87
2019-06-10T09:41:14.216Z,44.87
2019-06-10T09:42:14.461Z,44.36
2019-06-10T09:43:13.094Z,43.15
2019-06-10T09:44:13.188Z,44.51
2019-06-10T09:45:13.093Z,43.70
2019-06-10T09:46:13.072Z,43.01
2019-06-10T09:47:14.559Z,43.19
2019-06-10T09:48:13.378Z,43.48
2019-06-10T09:49:13.032Z,43.19
2019-06-10T09:50:13.034Z,42.38
2019-06-10T09:51:13.015Z,42.36
2019-06-10T09:52:13.501Z,42.26
2019-06-10T09:53:26.661Z,41.86
2019-06-10T09:54:13.978Z,43.07
2019-06-10T09:55:12.986Z,42.99
2019-06-10T09:56:12.971Z,43.41
2019-06-10T09:57:12.951Z,43.11
2019-06-10T09:58:12.938Z,43.92
2019-06-10T09:59:12.929Z,43.01
2019-06-10T10:00:12.920Z,42.82
2019-06-10T10:01:13.499Z,42.52
2019-06-10T10:02:12.895Z,42.54
2019-06-10T10:03:12.888Z,42.34
2019-06-10T10:04:12.876Z,43.74
2019-06-10T10:05:12.865Z,43.94
2019-06-10T10:06:15.846Z,43.74
2019-06-10T10:07:12.843Z,43.73
2019-06-10T10:08:12.903Z,43.31
2019-06-10T10:09:12.824Z,42.30
2019-06-10T10:10:13.001Z,41.39
2019-06-10T10:11:13.125Z,41.30
2019-06-10T10:12:13.291Z,41.20
2019-06-10T10:13:13.189Z,42.20
2019-06-10T10:14:16.058Z,42.82
2019-06-10T10:15:26.774Z,42.42
2019-06-10T10:16:13.760Z,42.42
2019-06-10T10:17:12.936Z,43.43
2019-06-10T10:18:13.362Z,42.64
2019-06-10T10:19:13.219Z,43.62
2019-06-10T10:20:12.715Z,43.21
2019-06-10T10:21:13.191Z,43.59
2019-06-10T10:22:14.040Z,42.18
2019-06-10T10:23:13.765Z,42.89
2019-06-10T10:24:15.125Z,42.79
2019-06-10T10:25:14.401Z,42.47
2019-06-10T10:26:13.286Z,43.17
2019-06-10T10:27:13.468Z,42.99
2019-06-10T10:28:13.439Z,42.58
2019-06-10T10:29:13.163Z,42.65
2019-06-10T10:30:13.504Z,42.55
2019-06-10T10:31:13.083Z,42.02
2019-06-10T10:32:13.178Z,42.12
2019-06-10T10:33:12.941Z,40.92
2019-06-10T10:34:13.501Z,41.31
2019-06-10T10:35:12.743Z,39.62
2019-06-10T10:36:14.025Z,40.21
2019-06-10T10:37:12.553Z,40.61
2019-06-10T10:38:14.330Z,40.51
2019-06-10T10:39:13.917Z,40.09
2019-06-10T10:40:12.510Z,39.19
2019-06-10T10:41:13.485Z,38.80
2019-06-10T10:42:12.701Z,40.98
2019-06-10T10:43:25.355Z,40.11
2019-06-10T10:44:14.664Z,40.31
2019-06-10T10:45:13.299Z,40.61
2019-06-10T10:46:13.805Z,40.13
2019-06-10T10:47:12.525Z,40.72
2019-06-10T10:48:14.091Z,40.94
2019-06-10T10:49:13.223Z,40.16
2019-06-10T10:50:13.993Z,40.23
2019-06-10T10:51:13.296Z,40.53
2019-06-10T10:52:12.979Z,41.11
2019-06-10T10:53:12.887Z,41.39
2019-06-10T10:54:25.556Z,40.62
2019-06-10T10:55:13.362Z,41.02
2019-06-10T10:56:13.033Z,40.03
2019-06-10T10:57:13.172Z,40.16
2019-06-10T10:58:12.866Z,41.85
2019-06-10T10:59:12.815Z,41.67
2019-06-10T11:00:12.990Z,41.30
2019-06-10T11:01:14.983Z,42.00
2019-06-10T11:02:12.717Z,42.87
2019-06-10T11:03:13.390Z,42.40
2019-06-10T11:04:13.299Z,42.72
2019-06-10T11:05:12.883Z,42.82
2019-06-10T11:06:13.084Z,42.72
2019-06-10T11:07:12.955Z,42.72
2019-06-10T11:08:13.575Z,42.22
2019-06-10T11:09:12.975Z,43.23
2019-06-10T11:10:12.781Z,42.74
2019-06-10T11:11:13.396Z,44.02
2019-06-10T11:12:12.200Z,43.35
2019-06-10T11:13:12.180Z,43.73
2019-06-10T11:14:15.023Z,43.11
2019-06-10T11:15:13.690Z,43.90
2019-06-10T11:16:12.146Z,42.20
2019-06-10T11:17:12.183Z,41.89
2019-06-10T11:18:12.777Z,41.27
2019-06-10T11:19:13.050Z,40.19
2019-06-10T11:20:13.598Z,41.96
2019-06-10T11:21:13.383Z,42.36
2019-06-10T11:22:12.626Z,41.06
2019-06-10T11:23:12.487Z,41.06
2019-06-10T11:24:14.521Z,40.94
2019-06-10T11:25:13.179Z,39.25
2019-06-10T11:26:12.999Z,39.03
2019-06-10T11:27:12.790Z,39.92
2019-06-10T11:28:12.024Z,39.03
2019-06-10T11:29:12.011Z,39.44
2019-06-10T11:30:12.447Z,39.26
2019-06-10T11:31:13.790Z,40.37
2019-06-10T11:32:11.987Z,41.30
2019-06-10T11:33:11.981Z,42.52
2019-06-10T11:34:11.962Z,42.72
2019-06-10T11:35:12.229Z,42.22
2019-06-10T11:36:13.569Z,42.42
2019-06-10T11:37:12.675Z,40.92
2019-06-10T11:38:12.845Z,39.03
2019-06-10T11:39:13.337Z,39.89
2019-06-10T11:40:13.591Z,40.09
2019-06-10T11:41:13.596Z,40.56
2019-06-10T11:42:13.220Z,40.37
2019-06-10T11:43:13.090Z,39.87
2019-06-10T11:44:11.852Z,40.08
2019-06-10T11:45:11.859Z,39.28
2019-06-10T11:46:13.785Z,39.31
2019-06-10T11:47:13.155Z,39.01
2019-06-10T11:48:12.953Z,39.32
2019-06-10T11:49:12.587Z,40.43
2019-06-10T11:50:12.184Z,40.76
2019-06-10T11:51:12.979Z,40.17
2019-06-10T11:52:12.589Z,40.27
2019-06-10T11:53:12.809Z,40.86
2019-06-10T11:54:12.882Z,40.98
2019-06-10T11:55:18.737Z,42.19
2019-06-10T11:56:13.178Z,44.18
2019-06-10T11:57:12.491Z,43.71
2019-06-10T11:58:11.704Z,44.01
2019-06-10T11:59:13.385Z,43.61
2019-06-10T12:00:16.586Z,43.51
2019-06-10T12:01:13.434Z,43.41
2019-06-10T12:02:13.260Z,44.40
2019-06-10T12:03:13.133Z,46.01
2019-06-10T12:04:12.900Z,46.03
2019-06-10T12:05:13.045Z,45.83
2019-06-10T12:06:13.584Z,46.15
2019-06-10T12:07:12.919Z,46.07
2019-06-10T12:08:13.113Z,46.15
2019-06-10T12:09:13.769Z,46.15
2019-06-10T12:10:12.798Z,46.37
2019-06-10T12:11:12.623Z,45.97
2019-06-10T12:12:12.994Z,46.77
2019-06-10T12:13:13.367Z,47.36
2019-06-10T12:14:12.935Z,46.17
2019-06-10T12:15:12.118Z,46.97
2019-06-10T12:17:11.310Z,48.65
2019-06-10T12:17:27.589Z,46.49
2019-06-10T12:18:13.154Z,47.28
2019-06-10T12:19:12.742Z,47.09
2019-06-10T12:20:13.241Z,46.19
2019-06-10T12:21:13.240Z,46.39
2019-06-10T12:22:13.387Z,47.38
2019-06-10T12:23:12.713Z,47.28
2019-06-10T12:24:12.728Z,47.26
2019-06-10T12:25:31.457Z,47.36
2019-06-10T12:26:12.403Z,46.15
2019-06-10T12:27:13.116Z,46.03
2019-06-10T12:28:12.865Z,46.23
2019-06-10T12:29:12.380Z,47.71
2019-06-10T12:30:13.246Z,46.30
2019-06-10T12:31:13.434Z,46.18
2019-06-10T12:32:13.548Z,45.98
2019-06-10T12:33:19.947Z,45.27
2019-06-10T12:34:12.613Z,46.26
2019-06-10T12:35:13.687Z,45.76
2019-06-10T12:36:12.852Z,44.87
2019-06-10T12:37:15.777Z,44.97
2019-06-10T12:38:13.846Z,44.90
2019-06-10T12:39:14.880Z,45.49
2019-06-10T12:40:12.850Z,45.79
2019-06-10T12:41:14.074Z,45.90
2019-06-10T12:42:14.147Z,46.01
2019-06-10T12:43:12.643Z,45.31
2019-06-10T12:44:12.331Z,45.51
2019-06-10T12:45:12.812Z,46.11
2019-06-10T12:46:12.710Z,46.01
2019-06-10T12:47:11.185Z,45.83
2019-06-10T12:48:13.173Z,46.23
2019-06-10T12:49:13.088Z,46.05
2019-06-10T12:50:12.176Z,46.55
2019-06-10T12:51:13.482Z,46.94
2019-06-10T12:52:12.581Z,46.97
2019-06-10T12:53:12.535Z,47.36
2019-06-10T12:54:13.086Z,47.66
2019-06-10T12:55:12.525Z,47.58
2019-06-10T12:56:14.185Z,47.90
2019-06-10T12:57:12.361Z,48.20
2019-06-10T12:58:11.082Z,47.78
2019-06-10T12:59:13.263Z,48.20
2019-06-10T13:00:20.676Z,48.10
2019-06-10T13:01:12.050Z,48.00
2019-06-10T13:02:21.934Z,48.50
2019-06-10T13:03:12.877Z,49.11
2019-06-10T13:04:13.559Z,49.81
2019-06-10T13:05:12.225Z,49.61
2019-06-10T13:06:12.916Z,49.41
2019-06-10T13:07:12.599Z,49.34
2019-06-10T13:08:13.224Z,49.74
2019-06-10T13:09:12.917Z,49.63
2019-06-10T13:10:12.131Z,49.34
2019-06-10T13:11:13.284Z,49.93
2019-06-10T13:12:13.000Z,50.35
2019-06-10T13:13:10.902Z,49.96
2019-06-10T13:14:12.969Z,50.56
2019-06-10T13:15:10.869Z,50.45
2019-06-10T13:16:14.284Z,51.54
2019-06-10T13:17:12.933Z,51.05
2019-06-10T13:18:18.409Z,51.54
2019-06-10T13:19:12.600Z,51.05
2019-06-10T13:20:13.638Z,50.95
2019-06-10T13:21:14.765Z,51.67
2019-06-10T13:22:12.523Z,51.87
2019-06-10T13:23:21.650Z,51.77
2019-06-10T13:24:13.768Z,51.28
2019-06-10T13:25:13.367Z,51.28
2019-06-10T13:26:15.803Z,52.19
2019-06-10T13:27:11.741Z,52.56
2019-06-10T13:28:10.729Z,52.37
2019-06-10T13:29:14.295Z,51.89
2019-06-10T13:30:11.705Z,52.49
2019-06-10T13:31:10.694Z,52.69
2019-06-10T13:32:10.894Z,52.59
2019-06-10T13:33:13.954Z,52.69
2019-06-10T13:34:13.763Z,52.79
2019-06-10T13:35:12.442Z,52.00
2019-06-10T13:36:10.666Z,52.29
2019-06-10T13:37:12.612Z,52.59
2019-06-10T13:38:11.618Z,52.39
2019-06-10T13:39:12.974Z,52.89
2019-06-10T13:40:12.940Z,52.76
2019-06-10T13:41:10.590Z,52.37
2019-06-10T13:42:13.312Z,52.56
2019-06-10T13:43:12.456Z,50.98
2019-06-10T13:44:15.374Z,52.74
2019-06-10T13:45:11.655Z,51.45
2019-06-10T13:46:11.047Z,50.85
2019-06-10T13:47:14.627Z,50.65
2019-06-10T13:48:12.488Z,49.74
2019-06-10T13:49:12.449Z,49.26
2019-06-10T13:50:11.945Z,51.84
2019-06-10T13:51:13.122Z,49.54
2019-06-10T13:52:15.961Z,49.74
2019-06-10T13:53:13.411Z,48.44
2019-06-10T13:54:11.558Z,48.94
2019-06-10T13:55:13.028Z,48.25
2019-06-10T13:56:32.086Z,48.05
2019-06-10T13:57:13.664Z,48.54
2019-06-10T13:58:11.673Z,47.95
2019-06-10T13:59:11.726Z,47.45
2019-06-10T14:00:12.367Z,48.32
2019-06-10T14:01:20.769Z,46.53
2019-06-10T14:02:11.940Z,46.53
2019-06-10T14:03:15.837Z,45.94
2019-06-10T14:04:20.471Z,46.22
2019-06-10T14:05:17.882Z,46.51
2019-06-10T14:06:32.325Z,47.61
2019-06-10T14:07:16.920Z,46.02
2019-06-10T14:08:15.053Z,46.09
2019-06-10T14:09:16.017Z,46.19
2019-06-10T14:10:17.702Z,44.31
2019-06-10T14:11:13.442Z,44.98
2019-06-10T14:12:16.620Z,45.48
2019-06-10T14:13:15.218Z,46.07
2019-06-10T14:14:11.560Z,46.17
2019-06-10T14:15:12.173Z,46.47
2019-06-10T14:16:14.000Z,46.07
2019-06-10T14:17:15.917Z,46.05
2019-06-10T14:18:15.019Z,45.85
2019-06-10T14:19:12.594Z,45.16
2019-06-10T14:20:15.301Z,43.48
2019-06-10T14:21:16.650Z,44.37
2019-06-10T14:22:15.184Z,44.76
2019-06-10T14:23:10.207Z,43.85
2019-06-10T14:24:11.089Z,44.56
2019-06-10T14:25:11.416Z,44.49
2019-06-10T14:26:12.614Z,46.07
2019-06-10T14:27:15.555Z,46.27
2019-06-10T14:28:19.684Z,45.08
2019-06-10T14:29:14.284Z,46.27
2019-06-10T14:30:13.541Z,45.87
2019-06-10T14:31:35.485Z,46.17
2019-06-10T14:32:11.894Z,46.17
2019-06-10T14:33:10.011Z,46.19
2019-06-10T14:34:13.988Z,46.39
2019-06-10T14:35:15.504Z,46.09
2019-06-10T14:36:15.114Z,46.47
2019-06-10T14:37:12.796Z,45.90
2019-06-10T14:38:10.718Z,46.09
2019-06-10T14:39:10.744Z,45.70
2019-06-10T14:40:13.208Z,45.23
2019-06-10T14:41:10.104Z,45.62
2019-06-10T14:42:11.059Z,45.15
2019-06-10T14:43:10.366Z,45.54
2019-06-10T14:44:11.475Z,45.84
2019-06-10T14:45:11.366Z,46.24
2019-06-10T14:46:13.549Z,46.24
2019-06-10T14:47:13.532Z,46.36
2019-06-10T14:48:11.504Z,46.56
2019-06-10T14:49:11.469Z,45.96
2019-06-10T14:50:11.509Z,45.76
2019-06-10T14:51:12.408Z,48.05
2019-06-10T14:52:13.572Z,46.36
2019-06-10T14:53:11.090Z,47.45
2019-06-10T14:54:09.777Z,46.46
2019-06-10T14:55:11.248Z,45.76
2019-06-10T14:56:13.179Z,46.26
2019-06-10T14:57:13.569Z,46.46
2019-06-10T14:58:13.182Z,47.16
2019-06-10T14:59:14.069Z,46.46
2019-06-10T15:00:09.867Z,46.16
2019-06-10T15:01:12.141Z,46.06
2019-06-10T15:02:12.845Z,47.05
2019-06-10T15:03:11.137Z,47.05
2019-06-10T15:04:10.090Z,46.46
2019-06-10T15:05:11.139Z,46.86
2019-06-10T15:06:09.641Z,46.16
2019-06-10T15:07:09.630Z,46.36
2019-06-10T15:08:12.461Z,45.96
2019-06-10T15:09:09.610Z,47.35
2019-06-10T15:10:09.726Z,48.05
2019-06-10T15:11:09.729Z,45.96
2019-06-10T15:12:09.729Z,46.36
2019-06-10T15:13:09.754Z,45.86
2019-06-10T15:14:09.811Z,46.16
2019-06-10T15:15:10.251Z,45.96
2019-06-10T15:16:10.171Z,46.36
2019-06-10T15:17:10.621Z,46.16
2019-06-10T15:18:09.510Z,46.46
2019-06-10T15:19:17.621Z,47.65
2019-06-10T15:20:11.657Z,48.44
2019-06-10T15:21:10.844Z,48.05
2019-06-10T15:22:12.171Z,47.95
2019-06-10T15:23:11.514Z,48.05
2019-06-10T15:24:09.920Z,46.56
2019-06-10T15:25:10.848Z,46.26
2019-06-10T15:26:10.002Z,46.16
2019-06-10T15:27:15.888Z,46.48
2019-06-10T15:28:13.192Z,46.08
2019-06-10T15:29:09.508Z,46.28
2019-06-10T15:30:14.789Z,45.98
2019-06-10T15:31:13.051Z,47.38
2019-06-10T15:32:19.150Z,46.38
2019-06-10T15:33:11.185Z,46.48
2019-06-10T15:34:11.219Z,46.58
2019-06-10T15:35:10.724Z,46.88
2019-06-10T15:36:09.334Z,47.28
2019-06-10T15:37:10.962Z,46.98
2019-06-10T15:38:09.292Z,48.27
2019-06-10T15:39:09.279Z,48.77
2019-06-10T15:40:09.278Z,49.74
2019-06-10T15:41:09.397Z,47.95
2019-06-10T15:42:09.485Z,48.05
2019-06-10T15:43:09.627Z,47.95
2019-06-10T15:44:09.702Z,47.83
2019-06-10T15:45:09.826Z,48.02
2019-06-10T15:46:09.904Z,49.71
2019-06-10T15:47:10.697Z,48.14
2019-06-10T15:48:10.194Z,48.05
2019-06-10T15:49:10.471Z,48.42
2019-06-10T15:50:10.771Z,49.93
2019-06-10T15:51:10.451Z,48.74
2019-06-10T15:52:10.950Z,48.35
2019-06-10T15:53:10.498Z,47.65
2019-06-10T15:54:09.138Z,48.14
2019-06-10T15:55:09.180Z,48.65
2019-06-10T15:56:18.225Z,48.74
2019-06-10T15:57:28.524Z,48.94
2019-06-10T15:58:12.493Z,48.25
2019-06-10T15:59:09.060Z,49.04
2019-06-10T16:00:14.179Z,48.65
2019-06-10T16:01:14.581Z,48.14
2019-06-10T16:02:11.176Z,48.05
2019-06-10T16:03:09.037Z,48.25
2019-06-10T16:04:09.035Z,48.05
2019-06-10T16:05:08.995Z,48.35
2019-06-10T16:06:08.996Z,47.67
2019-06-10T16:07:08.972Z,47.67
2019-06-10T16:08:08.961Z,47.87
2019-06-10T16:09:08.951Z,48.27
2019-06-10T16:10:08.939Z,48.66
2019-06-10T16:11:08.941Z,48.07
2019-06-10T16:12:08.918Z,50.05
2019-06-10T16:13:08.907Z,49.76
2019-06-10T16:14:08.897Z,49.86
2019-06-10T16:15:08.886Z,49.16
2019-06-10T16:16:08.883Z,49.68
2019-06-10T16:17:08.872Z,49.68
2019-06-10T16:18:08.853Z,49.49
2019-06-10T16:19:08.840Z,49.29
2019-06-10T16:20:08.839Z,50.08
2019-06-10T16:21:08.830Z,50.98
2019-06-10T16:22:08.812Z,50.98
2019-06-10T16:23:08.795Z,49.56
2019-06-10T16:24:08.788Z,49.16
2019-06-10T16:25:08.773Z,49.36
2019-06-10T16:26:08.776Z,49.56
2019-06-10T16:27:08.752Z,49.16
2019-06-10T16:28:08.742Z,49.07
2019-06-10T16:29:08.730Z,48.86
2019-06-10T16:30:08.719Z,48.57
2019-06-10T16:31:08.717Z,47.97
2019-06-10T16:32:08.699Z,48.07
2019-06-10T16:33:08.687Z,47.97
2019-06-10T16:34:08.674Z,48.47
2019-06-10T16:35:08.663Z,48.27
2019-06-10T16:36:08.662Z,49.76
2019-06-10T16:37:08.641Z,49.56
2019-06-10T16:38:08.651Z,47.67
2019-06-10T16:39:08.621Z,48.17
2019-06-10T16:40:08.609Z,48.77
2019-06-10T16:41:08.611Z,47.97
2019-06-10T16:42:08.588Z,49.14
2019-06-10T16:43:08.575Z,47.87
2019-06-10T16:44:08.569Z,48.14
2019-06-10T16:45:08.560Z,47.57
2019-06-10T16:46:08.556Z,47.45
2019-06-10T16:47:08.546Z,47.57
2019-06-10T16:48:08.521Z,48.57
2019-06-10T16:49:08.513Z,49.36
2019-06-10T16:50:08.505Z,48.27
2019-06-10T16:51:08.503Z,48.57
2019-06-10T16:52:08.480Z,48.07
2019-06-10T16:53:08.475Z,47.85
2019-06-10T16:54:08.460Z,47.77
2019-06-10T16:55:08.455Z,47.77
2019-06-10T16:56:08.545Z,47.40
2019-06-10T16:57:08.429Z,47.80
2019-06-10T16:58:08.601Z,47.80
2019-06-10T16:59:08.403Z,47.82
2019-06-10T17:00:11.991Z,47.52
2019-06-10T17:01:09.402Z,47.62
2019-06-10T17:02:08.369Z,48.22
2019-06-10T17:03:08.359Z,48.02
2019-06-10T17:04:08.352Z,47.72
2019-06-10T17:05:08.340Z,47.82
2019-06-10T17:06:08.328Z,47.64
2019-06-10T17:07:08.329Z,47.84
2019-06-10T17:08:08.306Z,48.14
2019-06-10T17:09:08.296Z,48.52
2019-06-10T17:10:08.287Z,48.11
2019-06-10T17:11:08.273Z,48.04
2019-06-10T17:12:08.274Z,48.34
2019-06-10T17:13:08.255Z,48.54
2019-06-10T17:14:08.243Z,48.64
2019-06-10T17:15:08.230Z,48.44
2019-06-10T17:16:08.220Z,48.14
2019-06-10T17:17:08.217Z,49.83
2019-06-10T17:18:08.204Z,49.46
2019-06-10T17:19:08.190Z,49.76
2019-06-10T17:20:08.179Z,49.63
2019-06-10T17:21:08.166Z,50.15
2019-06-10T17:22:08.162Z,49.85
2019-06-10T17:23:08.144Z,49.66
2019-06-10T17:24:08.135Z,50.05
2019-06-10T17:25:08.124Z,50.25
2019-06-10T17:26:08.134Z,50.25
2019-06-10T17:27:08.110Z,50.55
2019-06-10T17:28:18.298Z,50.55
2019-06-10T17:29:09.080Z,50.25
2019-06-10T17:30:08.068Z,50.87
2019-06-10T17:31:08.065Z,50.57
2019-06-10T17:32:08.055Z,50.87
2019-06-10T17:33:08.037Z,50.68
2019-06-10T17:34:08.574Z,50.70
2019-06-10T17:35:08.015Z,50.87
2019-06-10T17:36:08.006Z,51.27
2019-06-10T17:37:08.004Z,51.10
2019-06-10T17:38:07.981Z,51.10
2019-06-10T17:39:07.970Z,51.50
2019-06-10T17:40:07.960Z,51.40
2019-06-10T17:41:07.947Z,51.40
2019-06-10T17:42:07.946Z,51.70
2019-06-10T17:43:07.925Z,51.59
2019-06-10T17:44:07.916Z,51.50
2019-06-10T17:45:07.912Z,52.32
2019-06-10T17:46:07.932Z,51.89
2019-06-10T17:47:07.895Z,52.00
2019-06-10T17:48:07.875Z,52.59
2019-06-10T17:49:07.860Z,52.69
2019-06-10T17:50:07.847Z,52.59
2019-06-10T17:51:07.836Z,52.59
2019-06-10T17:52:07.837Z,52.69
2019-06-10T17:53:07.813Z,52.69
2019-06-10T17:54:07.803Z,52.79
2019-06-10T17:55:07.794Z,52.39
2019-06-10T17:56:07.781Z,52.39
2019-06-10T17:57:07.786Z,52.09
2019-06-10T17:58:07.761Z,52.02
2019-06-10T17:59:07.769Z,52.42
2019-06-10T18:00:12.244Z,52.02
2019-06-10T18:01:08.729Z,51.54
2019-06-10T18:02:07.727Z,52.25
2019-06-10T18:03:07.713Z,53.04
2019-06-10T18:04:07.696Z,53.04
2019-06-10T18:05:07.685Z,53.74
2019-06-10T18:06:07.672Z,53.84
2019-06-10T18:07:07.664Z,54.44
2019-06-10T18:08:07.664Z,55.06
2019-06-10T18:09:07.637Z,54.74
2019-06-10T18:10:07.626Z,55.16
2019-06-10T18:11:07.616Z,55.56
2019-06-10T18:12:07.605Z,55.66
2019-06-10T18:13:14.070Z,56.09
2019-06-10T18:14:08.581Z,56.56
2019-06-10T18:15:07.571Z,56.88
2019-06-10T18:16:07.564Z,56.79
2019-06-10T18:17:07.550Z,56.98
2019-06-10T18:18:07.549Z,57.09
2019-06-10T18:19:07.537Z,57.39
2019-06-10T18:20:07.570Z,57.09
2019-06-10T18:21:07.508Z,57.09
2019-06-10T18:22:07.492Z,57.18
2019-06-10T18:23:07.513Z,57.58
2019-06-10T18:24:08.481Z,57.98
2019-06-10T18:25:07.494Z,57.78
2019-06-10T18:26:07.479Z,58.61
2019-06-10T18:27:07.448Z,58.41
2019-06-10T18:28:07.434Z,58.81
2019-06-10T18:29:09.384Z,58.91
2019-06-10T18:30:13.325Z,59.23
2019-06-10T18:31:08.421Z,59.21
2019-06-10T18:32:07.382Z,58.84
2019-06-10T18:33:07.423Z,58.54
2019-06-10T18:34:07.361Z,58.24
2019-06-10T18:35:07.350Z,58.14
2019-06-10T18:36:07.338Z,58.56
2019-06-10T18:37:07.370Z,58.06
2019-06-10T18:38:07.332Z,57.46
2019-06-10T18:39:07.305Z,57.76
2019-06-10T18:40:07.303Z,57.97
2019-06-10T18:41:07.336Z,57.97
2019-06-10T18:42:07.277Z,58.47
2019-06-10T18:43:07.299Z,58.49
2019-06-10T18:44:19.971Z,58.39
2019-06-10T18:45:08.240Z,58.89
2019-06-10T18:46:07.249Z,59.19
2019-06-10T18:47:07.236Z,59.09